Time;durP1;ratioP1;P1;durP2;ratioP2;P2;SDS_P1;SDS_P2;PMS_P1;PMS_P2;Temp;Humidity;BMP_temperature;BMP_pressure;BME280_temperature;BME280_humidity;BME280_pressure;Samples;Min_cycle;Max_cycle;Signal;HPM_P1;HPM_P2
2021/04/28 00:00:32;;;;;;;5.25;4.35;;;8.40;66.20;;;;;;5074039;28;20102;-73
2021/04/28 00:02:58;;;;;;;4.78;4.32;;;8.40;66.30;;;;;;5073791;28;20388;-72
2021/04/28 00:05:24;;;;;;;4.70;4.25;;;8.30;66.40;;;;;;5074025;28;20037;-73
2021/04/28 00:07:50;;;;;;;9.88;4.63;;;8.30;66.70;;;;;;5074236;28;20036;-72
2021/04/28 00:10:19;;;;;;;6.70;4.50;;;8.20;67.00;;;;;;5073370;28;20039;-72
2021/04/28 00:12:45;;;;;;;7.95;4.20;;;8.20;67.00;;;;;;5074255;28;20031;-72
2021/04/28 00:15:18;;;;;;;7.45;4.50;;;8.20;67.10;;;;;;5074501;28;20025;-73
2021/04/28 00:17:45;;;;;;;7.10;4.35;;;8.10;67.10;;;;;;5073594;28;20491;-72
2021/04/28 00:20:12;;;;;;;5.93;5.32;;;8.10;67.50;;;;;;5074070;28;20499;-72
2021/04/28 00:22:39;;;;;;;6.95;4.05;;;8.10;67.90;;;;;;5073330;28;20509;-73
2021/04/28 00:25:09;;;;;;;4.78;4.25;;;8.00;68.20;;;;;;5073931;28;20036;-70
2021/04/28 00:27:36;;;;;;;4.88;4.10;;;7.90;68.30;;;;;;5073923;28;20029;-72
2021/04/28 00:30:05;;;;;;;5.68;4.38;;;7.90;68.60;;;;;;5073286;28;20028;-71
2021/04/28 00:32:30;;;;;;;6.00;4.18;;;7.90;69.30;;;;;;5073705;28;20021;-71
2021/04/28 00:34:56;;;;;;;7.82;4.10;;;7.80;69.00;;;;;;5073323;28;20060;-72
2021/04/28 00:37:22;;;;;;;5.40;3.80;;;7.80;69.90;;;;;;5072897;28;20017;-72
2021/04/28 00:39:47;;;;;;;10.93;4.25;;;7.80;70.00;;;;;;5073846;28;20496;-72
2021/04/28 00:42:15;;;;;;;11.15;3.72;;;7.70;70.00;;;;;;5073604;28;20024;-71
2021/04/28 00:44:42;;;;;;;5.90;3.95;;;7.70;70.50;;;;;;5072694;28;20036;-71
2021/04/28 00:47:08;;;;;;;6.10;4.15;;;7.70;71.10;;;;;;5073559;28;20480;-72
2021/04/28 00:49:33;;;;;;;8.93;4.05;;;7.60;71.00;;;;;;5073373;28;20103;-72
2021/04/28 00:51:59;;;;;;;5.18;4.50;;;7.60;71.90;;;;;;5072975;28;20567;-72
2021/04/28 00:54:26;;;;;;;5.15;3.70;;;7.50;72.60;;;;;;5072861;28;20037;-72
2021/04/28 00:56:55;;;;;;;11.38;4.10;;;7.50;73.40;;;;;;5073366;28;20017;-71
2021/04/28 00:59:20;;;;;;;7.75;4.05;;;7.40;73.80;;;;;;5072076;28;20472;-71
2021/04/28 01:01:46;;;;;;;8.25;4.22;;;7.40;73.90;;;;;;5073570;28;20035;-71
2021/04/28 01:04:12;;;;;;;12.77;5.28;;;7.40;74.50;;;;;;5073315;28;20059;-72
2021/04/28 01:06:39;;;;;;;6.22;4.03;;;7.40;74.50;;;;;;5072409;28;20113;-71
2021/04/28 01:09:05;;;;;;;4.90;4.38;;;7.40;75.30;;;;;;5073168;28;20369;-73
2021/04/28 01:11:31;;;;;;;5.10;4.30;;;7.30;75.80;;;;;;5072780;28;20028;-71
2021/04/28 01:13:57;;;;;;;11.05;4.38;;;7.30;76.20;;;;;;5072543;28;20021;-71
2021/04/28 01:16:23;;;;;;;6.95;4.38;;;7.30;77.40;;;;;;5072531;28;20030;-72
2021/04/28 01:18:54;;;;;;;6.82;4.15;;;7.30;78.00;;;;;;5072805;28;20073;-71
2021/04/28 01:21:20;;;;;;;5.22;4.72;;;7.20;78.60;;;;;;5073544;28;20029;-71
2021/04/28 01:23:46;;;;;;;7.55;4.60;;;7.20;79.50;;;;;;5073025;28;20107;-71
2021/04/28 01:26:11;;;;;;;5.30;4.55;;;7.10;80.60;;;;;;5073842;28;20101;-72
2021/04/28 01:28:38;;;;;;;7.53;5.32;;;7.10;81.80;;;;;;5072573;28;20032;-73
2021/04/28 01:31:12;;;;;;;8.45;5.32;;;7.00;83.30;;;;;;5072973;28;20591;-72
2021/04/28 01:33:51;;;;;;;5.20;4.40;;;7.00;85.00;;;;;;5071955;28;20058;-72
2021/04/28 01:36:20;;;;;;;5.00;4.13;;;6.90;85.90;;;;;;5073010;28;20031;-72
2021/04/28 01:38:49;;;;;;;7.45;4.60;;;6.80;86.60;;;;;;5076883;28;20081;-72
2021/04/28 01:41:15;;;;;;;6.10;4.72;;;6.80;88.30;;;;;;5076249;28;20086;-71
2021/04/28 01:43:42;;;;;;;7.55;3.92;;;6.80;89.30;;;;;;5072403;28;20056;-72
2021/04/28 01:46:08;;;;;;;6.93;3.97;;;6.80;90.00;;;;;;5071927;28;20033;-72
2021/04/28 01:48:35;;;;;;;9.07;4.45;;;6.70;90.40;;;;;;5071321;28;20025;-72
2021/04/28 01:51:02;;;;;;;8.80;4.45;;;6.70;90.70;;;;;;5072306;28;21713;-72
2021/04/28 01:53:28;;;;;;;5.57;5.00;;;6.70;91.20;;;;;;5072124;28;20024;-72
2021/04/28 01:55:55;;;;;;;7.32;5.00;;;6.70;91.60;;;;;;5071707;28;20028;-72
2021/04/28 01:58:22;;;;;;;4.53;4.10;;;6.60;91.80;;;;;;5072082;28;20029;-72
2021/04/28 02:00:49;;;;;;;5.05;4.55;;;6.60;92.30;;;;;;5072191;28;20029;-71
2021/04/28 02:03:15;;;;;;;6.10;4.82;;;6.60;92.70;;;;;;5071560;28;20038;-71
2021/04/28 02:05:42;;;;;;;4.50;4.10;;;6.60;92.60;;;;;;5072307;28;20037;-72
2021/04/28 02:08:07;;;;;;;5.35;3.95;;;6.60;92.90;;;;;;5071383;28;20020;-71
2021/04/28 02:10:33;;;;;;;5.10;3.92;;;6.60;93.30;;;;;;5071861;28;20111;-73
2021/04/28 02:12:59;;;;;;;9.82;4.30;;;6.50;93.60;;;;;;5072164;28;20070;-71
2021/04/28 02:15:27;;;;;;;7.63;3.88;;;6.50;93.90;;;;;;5071245;28;20565;-71
2021/04/28 02:17:56;;;;;;;6.97;4.20;;;6.40;93.90;;;;;;5072257;28;20107;-71
2021/04/28 02:20:24;;;;;;;6.03;4.53;;;6.40;94.50;;;;;;5071740;28;20499;-71
2021/04/28 02:22:50;;;;;;;5.97;3.78;;;6.40;94.30;;;;;;5071453;28;20380;-72
2021/04/28 02:25:16;;;;;;;5.78;4.07;;;6.40;94.50;;;;;;5071575;28;20039;-72
2021/04/28 02:27:42;;;;;;;10.38;4.43;;;6.40;94.80;;;;;;5071986;28;20469;-72
2021/04/28 02:30:10;;;;;;;4.90;4.40;;;6.40;95.20;;;;;;5071160;28;20539;-72
2021/04/28 02:32:35;;;;;;;8.50;4.20;;;6.40;95.40;;;;;;5071609;28;20028;-72
2021/04/28 02:35:02;;;;;;;5.03;3.75;;;6.30;95.80;;;;;;5072010;28;20055;-72
2021/04/28 02:37:29;;;;;;;4.75;4.07;;;6.30;96.50;;;;;;5070276;28;20021;-72
2021/04/28 02:40:08;;;;;;;4.53;3.90;;;6.20;96.40;;;;;;5071894;28;20078;-72
2021/04/28 02:42:38;;;;;;;4.97;3.92;;;6.20;96.70;;;;;;5071462;28;20119;-72
2021/04/28 02:45:05;;;;;;;6.03;3.92;;;6.20;96.50;;;;;;5070855;28;20029;-72
2021/04/28 02:47:34;;;;;;;4.43;3.92;;;6.20;96.60;;;;;;5071605;28;20032;-72
2021/04/28 02:50:04;;;;;;;9.45;3.50;;;6.20;96.50;;;;;;5071905;28;20044;-72
2021/04/28 02:52:30;;;;;;;6.28;4.63;;;6.20;96.70;;;;;;5071144;28;20025;-72
2021/04/28 02:54:56;;;;;;;4.90;4.40;;;6.10;97.20;;;;;;5071598;28;20028;-72
2021/04/28 02:57:23;;;;;;;8.02;4.80;;;6.10;97.20;;;;;;5071594;28;20491;-72
2021/04/28 02:59:50;;;;;;;6.60;4.65;;;6.10;97.40;;;;;;5076046;28;20383;-72
2021/04/28 03:02:16;;;;;;;4.80;4.25;;;6.10;97.30;;;;;;5075540;28;20083;-72
2021/04/28 03:04:42;;;;;;;6.18;4.45;;;6.00;97.50;;;;;;5074653;28;20480;-72
2021/04/28 03:07:11;;;;;;;9.73;4.78;;;6.00;97.70;;;;;;5075418;28;20028;-71
2021/04/28 03:09:39;;;;;;;12.45;4.13;;;6.00;97.80;;;;;;5075166;28;20028;-71
2021/04/28 03:12:05;;;;;;;7.88;4.10;;;6.00;98.00;;;;;;5074757;28;20063;-71
2021/04/28 03:14:31;;;;;;;7.28;4.70;;;5.90;98.30;;;;;;5075148;28;20020;-71
2021/04/28 03:16:57;;;;;;;6.40;4.50;;;5.90;98.70;;;;;;5075693;28;20373;-72
2021/04/28 03:19:23;;;;;;;7.10;4.32;;;5.90;98.70;;;;;;5074311;28;20024;-71
2021/04/28 03:21:49;;;;;;;7.68;4.50;;;5.90;98.60;;;;;;5075174;28;20027;-72
2021/04/28 03:24:17;;;;;;;5.57;4.95;;;5.80;98.80;;;;;;5075123;28;20024;-72
2021/04/28 03:26:43;;;;;;;5.57;4.38;;;5.80;98.80;;;;;;5077201;28;20028;-73
2021/04/28 03:29:09;;;;;;;5.07;4.50;;;5.80;98.90;;;;;;5077285;28;20031;-72
2021/04/28 03:31:35;;;;;;;10.93;5.20;;;5.80;99.40;;;;;;5075311;28;20032;-72
2021/04/28 03:34:01;;;;;;;7.68;4.85;;;5.80;99.20;;;;;;5074990;28;20041;-73
2021/04/28 03:36:27;;;;;;;6.13;4.38;;;5.70;99.30;;;;;;5076118;28;20033;-72
2021/04/28 03:38:53;;;;;;;4.45;4.05;;;5.70;99.50;;;;;;5076750;28;20427;-71
2021/04/28 03:41:20;;;;;;;5.00;4.50;;;5.70;99.80;;;;;;5075884;28;20115;-72
2021/04/28 03:43:45;;;;;;;13.90;4.40;;;5.70;99.60;;;;;;5076531;28;20012;-72
2021/04/28 03:46:13;;;;;;;12.20;4.82;;;5.70;99.90;;;;;;5075146;28;20098;-72
2021/04/28 03:48:38;;;;;;;6.05;4.57;;;5.70;99.90;;;;;;5074326;28;20021;-72
2021/04/28 03:51:04;;;;;;;6.45;4.70;;;5.70;99.90;;;;;;5074883;28;20068;-72
2021/04/28 03:53:31;;;;;;;8.63;5.20;;;5.60;99.90;;;;;;5074373;28;20357;-72
2021/04/28 03:55:57;;;;;;;5.20;4.70;;;5.60;99.90;;;;;;5074313;28;20013;-71
2021/04/28 03:58:22;;;;;;;6.53;5.15;;;5.60;99.90;;;;;;5074564;28;20036;-72
2021/04/28 04:00:48;;;;;;;17.75;4.80;;;5.60;99.90;;;;;;5073810;28;20562;-71
2021/04/28 04:03:15;;;;;;;11.93;4.80;;;5.50;99.90;;;;;;5074555;28;20059;-72
2021/04/28 04:05:40;;;;;;;5.93;4.32;;;5.50;99.90;;;;;;5074170;28;20032;-71
2021/04/28 04:08:06;;;;;;;7.65;4.95;;;5.50;99.90;;;;;;5073637;28;20533;-72
2021/04/28 04:10:31;;;;;;;6.05;4.93;;;5.50;99.90;;;;;;5073739;28;20050;-72
2021/04/28 04:12:57;;;;;;;7.88;4.90;;;5.50;99.90;;;;;;5074216;28;20483;-72
2021/04/28 04:15:22;;;;;;;7.75;4.75;;;5.50;99.90;;;;;;5073290;28;20025;-72
2021/04/28 04:17:51;;;;;;;5.50;4.93;;;5.50;99.90;;;;;;5073975;28;20021;-71
2021/04/28 04:20:17;;;;;;;5.20;4.68;;;5.40;99.90;;;;;;5073808;28;20111;-71
2021/04/28 04:22:42;;;;;;;10.05;4.75;;;5.50;99.90;;;;;;5073373;28;20107;-73
2021/04/28 04:25:08;;;;;;;7.32;5.00;;;5.50;99.90;;;;;;5074288;28;20068;-73
2021/04/28 04:27:34;;;;;;;4.90;4.25;;;5.50;99.90;;;;;;5072408;28;20025;-72
2021/04/28 04:30:02;;;;;;;7.75;4.13;;;5.50;99.90;;;;;;5073426;28;20090;-72
2021/04/28 04:32:27;;;;;;;15.32;4.90;;;5.50;99.90;;;;;;5073734;28;20062;-72
2021/04/28 04:34:53;;;;;;;9.25;4.55;;;5.50;99.90;;;;;;5073786;28;20048;-72
2021/04/28 04:37:19;;;;;;;6.50;5.03;;;5.50;99.90;;;;;;5072806;28;20023;-72
2021/04/28 04:39:44;;;;;;;5.97;4.65;;;5.50;99.90;;;;;;5073658;28;20061;-72
2021/04/28 04:42:11;;;;;;;7.65;4.90;;;5.50;99.90;;;;;;5073727;28;20017;-73
2021/04/28 04:44:36;;;;;;;7.32;5.13;;;5.50;99.90;;;;;;5072769;28;20032;-72
2021/04/28 04:47:02;;;;;;;8.95;4.72;;;5.50;99.90;;;;;;5073398;28;20025;-72
2021/04/28 04:49:28;;;;;;;6.63;4.30;;;5.50;99.90;;;;;;5073444;28;20025;-72
2021/04/28 04:51:54;;;;;;;9.98;4.95;;;5.50;99.90;;;;;;5072668;28;20048;-71
2021/04/28 04:54:19;;;;;;;9.10;5.45;;;5.40;99.90;;;;;;5072954;28;20020;-71
2021/04/28 04:56:45;;;;;;;6.55;4.60;;;5.50;99.90;;;;;;5073479;28;20029;-72
2021/04/28 04:59:10;;;;;;;9.05;4.78;;;5.40;99.90;;;;;;5072596;28;20016;-73
2021/04/28 05:01:37;;;;;;;7.68;4.53;;;5.40;99.90;;;;;;5073007;28;20111;-73
2021/04/28 05:04:03;;;;;;;12.40;4.68;;;5.50;99.90;;;;;;5072375;28;20454;-73
2021/04/28 05:06:28;;;;;;;9.25;4.95;;;5.50;99.90;;;;;;5072732;28;20123;-73
2021/04/28 05:08:54;;;;;;;6.28;4.70;;;5.50;99.90;;;;;;5073115;28;20033;-73
2021/04/28 05:11:20;;;;;;;5.53;4.97;;;5.50;99.90;;;;;;5072298;28;20032;-72
2021/04/28 05:13:46;;;;;;;5.97;4.53;;;5.50;99.90;;;;;;5073411;28;20020;-72
2021/04/28 05:16:11;;;;;;;9.25;5.00;;;5.50;99.90;;;;;;5073551;28;20017;-72
2021/04/28 05:18:37;;;;;;;4.95;4.45;;;5.60;99.90;;;;;;5072298;28;20032;-71
2021/04/28 05:21:02;;;;;;;7.78;5.57;;;5.60;99.90;;;;;;5071876;28;20027;-72
2021/04/28 05:23:28;;;;;;;10.05;5.38;;;5.60;99.90;;;;;;5072879;28;20032;-72
2021/04/28 05:25:53;;;;;;;5.70;4.97;;;5.60;99.90;;;;;;5072502;28;20476;-72
2021/04/28 05:28:19;;;;;;;6.47;4.72;;;5.60;99.90;;;;;;5079263;28;20020;-72
2021/04/28 05:30:45;;;;;;;7.07;5.00;;;5.70;99.90;;;;;;5074401;28;20028;-72
2021/04/28 05:33:10;;;;;;;6.70;5.53;;;5.70;99.90;;;;;;5071644;28;20104;-72
2021/04/28 05:35:36;;;;;;;10.35;4.85;;;5.70;99.90;;;;;;5072762;28;20464;-72
2021/04/28 05:38:01;;;;;;;4.50;4.10;;;5.70;99.90;;;;;;5074076;28;20166;-71
2021/04/28 05:40:27;;;;;;;11.75;5.35;;;5.80;99.90;;;;;;5072581;28;20103;-73
2021/04/28 05:42:53;;;;;;;10.07;5.30;;;5.80;99.90;;;;;;5073118;28;20027;-72
2021/04/28 05:45:19;;;;;;;7.38;4.47;;;6.20;99.90;;;;;;5072371;28;20407;-72
2021/04/28 05:47:44;;;;;;;9.65;5.57;;;5.90;99.90;;;;;;5071966;28;20020;-72
2021/04/28 05:50:12;;;;;;;6.18;4.93;;;6.00;99.90;;;;;;5072739;28;20024;-73
2021/04/28 05:52:38;;;;;;;6.00;5.40;;;6.00;99.90;;;;;;5072825;28;20043;-71
2021/04/28 05:55:05;;;;;;;7.22;5.40;;;6.10;99.90;;;;;;5071754;28;20460;-71
2021/04/28 05:57:34;;;;;;;5.60;4.90;;;6.10;99.90;;;;;;5072187;28;20067;-72
2021/04/28 06:00:10;;;;;;;6.82;5.60;;;6.20;99.90;;;;;;5072249;28;20028;-71
2021/04/28 06:02:35;;;;;;;8.70;5.47;;;6.20;99.90;;;;;;5071442;28;20020;-73
2021/04/28 06:05:01;;;;;;;6.68;5.07;;;6.20;99.90;;;;;;5071920;28;20078;-73
2021/04/28 06:07:29;;;;;;;5.95;4.80;;;6.20;99.90;;;;;;5071588;28;20021;-72
2021/04/28 06:09:55;;;;;;;7.97;5.10;;;6.30;99.90;;;;;;5072875;28;20032;-72
2021/04/28 06:12:20;;;;;;;7.68;4.57;;;6.40;99.90;;;;;;5072394;28;20017;-72
2021/04/28 06:14:46;;;;;;;11.52;6.13;;;6.50;99.90;;;;;;5071599;28;20016;-72
2021/04/28 06:17:12;;;;;;;5.43;4.78;;;6.60;99.90;;;;;;5072264;28;20031;-72
2021/04/28 06:19:43;;;;;;;6.72;5.53;;;6.70;99.90;;;;;;5071933;28;20048;-72
2021/04/28 06:22:09;;;;;;;12.35;5.32;;;6.90;99.90;;;;;;5071636;28;20028;-72
2021/04/28 06:24:35;;;;;;;5.88;5.30;;;7.00;99.90;;;;;;5071705;28;20032;-72
2021/04/28 06:27:00;;;;;;;7.30;4.95;;;7.10;99.90;;;;;;5072517;28;20051;-73
2021/04/28 06:29:26;;;;;;;10.60;4.65;;;7.20;99.90;;;;;;5071535;28;20353;-72
2021/04/28 06:31:51;;;;;;;5.43;4.80;;;7.30;99.90;;;;;;5071925;28;20024;-73
2021/04/28 06:34:17;;;;;;;8.35;6.05;;;7.40;99.90;;;;;;5071684;28;20036;-73
2021/04/28 06:36:43;;;;;;;5.57;5.07;;;7.40;99.90;;;;;;5071411;28;20012;-72
2021/04/28 06:39:10;;;;;;;6.43;5.78;;;7.50;99.90;;;;;;5072135;28;20108;-73
2021/04/28 06:41:36;;;;;;;9.35;5.53;;;7.50;99.90;;;;;;5070638;28;20479;-73
2021/04/28 06:44:02;;;;;;;9.45;5.22;;;7.60;99.90;;;;;;5071474;28;20064;-73
2021/04/28 06:46:27;;;;;;;10.82;5.43;;;7.80;99.90;;;;;;5072092;28;20036;-72
2021/04/28 06:48:53;;;;;;;6.88;5.50;;;8.00;99.20;;;;;;5071897;28;20025;-72
2021/04/28 06:51:19;;;;;;;6.65;5.70;;;8.10;98.60;;;;;;5071143;28;20051;-73
2021/04/28 06:53:45;;;;;;;8.13;5.82;;;8.20;97.70;;;;;;5072172;28;20028;-73
2021/04/28 06:56:10;;;;;;;11.48;5.90;;;8.30;97.10;;;;;;5072152;28;20027;-73
2021/04/28 06:58:36;;;;;;;8.45;5.25;;;8.40;96.70;;;;;;5071017;28;20024;-73
2021/04/28 07:01:02;;;;;;;21.15;7.05;;;8.50;96.80;;;;;;5071788;28;20418;-73
2021/04/28 07:03:30;;;;;;;8.30;5.95;;;8.50;95.70;;;;;;5071126;28;20119;-73
2021/04/28 07:05:55;;;;;;;7.40;5.63;;;8.50;96.00;;;;;;5071663;28;20040;-73
2021/04/28 07:08:21;;;;;;;11.48;5.50;;;8.50;95.90;;;;;;5071583;28;20025;-73
2021/04/28 07:10:46;;;;;;;9.50;5.45;;;8.60;96.00;;;;;;5070982;28;20544;-73
2021/04/28 07:13:12;;;;;;;8.30;6.20;;;8.70;96.30;;;;;;5071992;28;20021;-73
2021/04/28 07:15:38;;;;;;;7.72;5.65;;;8.80;96.00;;;;;;5071760;28;20024;-73
2021/04/28 07:18:04;;;;;;;6.22;5.50;;;8.80;95.60;;;;;;5070915;28;20013;-73
2021/04/28 07:20:30;;;;;;;10.68;6.13;;;8.90;95.60;;;;;;5071752;28;20021;-73
2021/04/28 07:22:55;;;;;;;7.70;5.30;;;8.90;95.30;;;;;;5071794;28;20029;-72
2021/04/28 07:25:21;;;;;;;9.45;5.50;;;8.90;95.60;;;;;;5070649;28;20404;-72
2021/04/28 07:27:47;;;;;;;14.88;6.20;;;9.00;95.40;;;;;;5071665;28;20472;-72
2021/04/28 07:30:15;;;;;;;9.20;6.25;;;9.00;95.70;;;;;;5074380;28;20036;-73
2021/04/28 07:32:40;;;;;;;6.53;5.90;;;9.10;95.20;;;;;;5072732;28;20020;-73
2021/04/28 07:35:07;;;;;;;6.93;6.32;;;9.20;94.60;;;;;;5071226;28;20395;-72
2021/04/28 07:37:33;;;;;;;14.95;6.28;;;9.20;94.90;;;;;;5071316;28;20039;-73
2021/04/28 07:40:04;;;;;;;8.98;6.65;;;9.30;95.50;;;;;;5071346;28;20111;-72
2021/04/28 07:42:30;;;;;;;14.18;6.38;;;9.30;94.40;;;;;;5072071;28;20379;-72
2021/04/28 07:44:56;;;;;;;12.35;5.15;;;9.30;93.30;;;;;;5074658;28;20037;-72
2021/04/28 07:47:22;;;;;;;11.30;6.22;;;9.40;93.70;;;;;;5076648;28;20017;-72
2021/04/28 07:49:48;;;;;;;8.38;6.45;;;9.40;93.10;;;;;;5075584;28;20043;-72
2021/04/28 07:52:14;;;;;;;10.02;6.68;;;9.50;93.20;;;;;;5076133;28;20519;-73
2021/04/28 07:54:39;;;;;;;6.80;6.10;;;9.50;93.60;;;;;;5076316;28;20036;-72
2021/04/28 07:57:05;;;;;;;13.05;7.93;;;9.60;93.80;;;;;;5078874;28;20081;-72
2021/04/28 07:59:35;;;;;;;12.02;7.05;;;9.60;93.20;;;;;;5077413;28;20023;-72
2021/04/28 08:02:00;;;;;;;17.25;6.65;;;9.70;93.50;;;;;;5074458;28;20020;-72
2021/04/28 08:04:26;;;;;;;6.90;6.28;;;9.70;92.50;;;;;;5074511;28;20025;-72
2021/04/28 08:06:53;;;;;;;11.90;7.68;;;9.70;92.90;;;;;;5074125;28;20028;-73
2021/04/28 08:09:19;;;;;;;8.27;6.50;;;9.80;92.80;;;;;;5074235;28;20040;-74
2021/04/28 08:11:44;;;;;;;11.25;6.55;;;9.90;92.40;;;;;;5074663;28;20048;-73
2021/04/28 08:14:10;;;;;;;8.77;6.63;;;10.00;92.60;;;;;;5073787;28;20376;-72
2021/04/28 08:16:36;;;;;;;9.65;6.97;;;10.10;91.90;;;;;;5074349;28;20035;-72
2021/04/28 08:19:03;;;;;;;9.27;6.78;;;10.20;91.70;;;;;;5074535;28;20021;-74
2021/04/28 08:21:29;;;;;;;9.95;6.65;;;10.20;91.80;;;;;;5073451;28;20024;-73
2021/04/28 08:23:54;;;;;;;10.45;8.00;;;10.30;91.50;;;;;;5074443;28;20071;-73
2021/04/28 08:26:20;;;;;;;7.35;6.70;;;10.30;91.20;;;;;;5073827;28;20502;-73
2021/04/28 08:28:47;;;;;;;8.45;7.20;;;10.50;91.30;;;;;;5073656;28;20115;-74
2021/04/28 08:31:15;;;;;;;8.77;7.63;;;10.60;91.80;;;;;;5073811;28;20074;-73
2021/04/28 08:33:41;;;;;;;9.15;7.07;;;10.70;90.90;;;;;;5074136;28;20115;-74
2021/04/28 08:36:08;;;;;;;13.52;7.85;;;10.80;90.20;;;;;;5073615;28;20032;-74
2021/04/28 08:38:37;;;;;;;8.90;7.78;;;10.90;89.40;;;;;;5073654;28;20017;-73
2021/04/28 08:41:05;;;;;;;12.48;8.57;;;11.00;89.60;;;;;;5073765;28;20073;-74
2021/04/28 08:43:31;;;;;;;13.90;8.20;;;11.20;89.50;;;;;;5072938;28;20029;-73
2021/04/28 08:45:59;;;;;;;9.25;7.53;;;11.40;86.00;;;;;;5073265;28;20043;-73
2021/04/28 08:48:27;;;;;;;10.98;7.22;;;11.60;85.00;;;;;;5073369;28;20381;-73
2021/04/28 08:50:53;;;;;;;16.50;8.10;;;11.70;83.00;;;;;;5072804;28;20016;-73
2021/04/28 08:53:19;;;;;;;12.27;8.07;;;11.70;82.60;;;;;;5073309;28;20123;-73
2021/04/28 08:55:45;;;;;;;20.88;8.45;;;11.70;82.50;;;;;;5072883;28;20461;-73
2021/04/28 08:58:12;;;;;;;10.63;8.60;;;11.90;81.90;;;;;;5072645;28;20024;-73
2021/04/28 09:00:38;;;;;;;9.93;7.47;;;12.00;80.30;;;;;;5073210;28;20436;-72
2021/04/28 09:03:04;;;;;;;11.07;8.77;;;12.20;80.30;;;;;;5073006;28;20016;-74
2021/04/28 09:05:31;;;;;;;15.50;8.02;;;12.30;79.30;;;;;;5072797;28;20407;-73
2021/04/28 09:07:57;;;;;;;11.20;8.07;;;12.40;78.10;;;;;;5073012;28;20070;-73
2021/04/28 09:10:25;;;;;;;9.77;7.40;;;12.50;76.60;;;;;;5070946;28;20033;-73
2021/04/28 09:12:59;;;;;;;9.27;8.38;;;12.60;76.80;;;;;;5073530;28;20023;-72
2021/04/28 09:15:43;;;;;;;12.02;8.50;;;12.70;75.30;;;;;;5073088;28;20021;-73
2021/04/28 09:18:15;;;;;;;9.38;8.05;;;12.60;74.20;;;;;;5072473;28;20029;-72
2021/04/28 09:20:47;;;;;;;11.23;8.13;;;12.70;74.80;;;;;;5073189;28;20086;-73
2021/04/28 09:23:19;;;;;;;12.32;7.75;;;12.70;73.50;;;;;;5072779;28;20031;-73
2021/04/28 09:25:46;;;;;;;10.63;8.75;;;12.70;73.80;;;;;;5072566;28;20033;-74
2021/04/28 09:28:32;;;;;;;8.90;7.90;;;12.70;71.80;;;;;;5073357;28;20032;-73
2021/04/28 09:31:07;;;;;;;8.55;7.75;;;12.80;73.20;;;;;;5078419;28;20446;-73
2021/04/28 09:33:41;;;;;;;17.88;8.77;;;12.90;73.40;;;;;;5076768;28;20372;-73
2021/04/28 09:36:08;;;;;;;11.30;8.05;;;12.90;71.70;;;;;;5073017;28;20027;-73
2021/04/28 09:38:56;;;;;;;11.80;8.90;;;13.00;72.60;;;;;;5071909;28;20097;-73
2021/04/28 09:41:34;;;;;;;10.35;9.45;;;13.00;71.40;;;;;;5075178;28;20037;-72
2021/04/28 09:44:02;;;;;;;12.13;7.53;;;13.00;70.50;;;;;;5074695;28;20090;-73
2021/04/28 09:46:28;;;;;;;12.80;8.95;;;13.00;70.00;;;;;;5076583;28;20032;-73
2021/04/28 09:49:09;;;;;;;13.73;8.90;;;13.10;70.10;;;;;;5074055;28;20031;-72
2021/04/28 09:51:36;;;;;;;8.50;7.70;;;13.20;69.80;;;;;;5072286;28;20365;-73
2021/04/28 09:54:12;;;;;;;9.65;8.43;;;13.40;69.60;;;;;;5070987;28;20037;-73
2021/04/28 09:56:39;;;;;;;16.90;9.00;;;13.60;69.70;;;;;;5072344;28;20021;-73
2021/04/28 09:59:05;;;;;;;12.07;8.38;;;13.70;68.70;;;;;;5072212;28;20028;-74
2021/04/28 10:01:35;;;;;;;19.70;9.02;;;13.90;68.70;;;;;;5071384;28;20082;-73
2021/04/28 10:04:02;;;;;;;16.85;8.88;;;14.00;66.40;;;;;;5072202;28;20024;-73
2021/04/28 10:06:42;;;;;;;11.00;7.97;;;13.90;64.50;;;;;;5070659;28;20047;-74
2021/04/28 10:09:29;;;;;;;12.82;8.63;;;13.90;64.70;;;;;;5072322;28;20036;-73
2021/04/28 10:11:55;;;;;;;13.32;8.88;;;13.90;66.00;;;;;;5072303;28;20556;-73
2021/04/28 10:14:21;;;;;;;17.13;8.63;;;14.00;66.20;;;;;;5071021;28;20103;-73
2021/04/28 10:16:47;;;;;;;10.10;8.85;;;14.20;66.30;;;;;;5072212;28;20472;-73
2021/04/28 10:19:17;;;;;;;9.52;8.60;;;14.20;64.80;;;;;;5072106;28;20025;-75
2021/04/28 10:21:45;;;;;;;13.97;9.40;;;14.20;64.80;;;;;;5071700;28;20021;-74
2021/04/28 10:24:11;;;;;;;10.95;9.90;;;14.30;63.90;;;;;;5072378;28;20035;-73
2021/04/28 10:26:38;;;;;;;12.50;9.05;;;14.20;63.40;;;;;;5071897;28;20035;-73
2021/04/28 10:29:06;;;;;;;20.52;9.27;;;14.20;64.30;;;;;;5071434;28;20021;-74
2021/04/28 10:31:35;;;;;;;14.98;8.93;;;14.30;63.40;;;;;;5071598;28;20024;-74
2021/04/28 10:34:02;;;;;;;11.68;10.30;;;14.50;62.80;;;;;;5072039;28;20158;-74
2021/04/28 10:36:28;;;;;;;10.32;9.05;;;14.60;61.70;;;;;;5071275;28;20104;-74
2021/04/28 10:38:53;;;;;;;9.80;8.90;;;14.60;62.60;;;;;;5072578;28;20299;-73
2021/04/28 10:41:36;;;;;;;10.13;8.85;;;14.70;62.70;;;;;;5071670;28;20469;-73
2021/04/28 10:44:02;;;;;;;16.38;8.98;;;14.80;62.80;;;;;;5072082;28;20024;-73
2021/04/28 10:46:27;;;;;;;10.25;9.13;;;14.90;62.00;;;;;;5071797;28;20036;-73
2021/04/28 10:48:53;;;;;;;14.02;9.43;;;14.90;61.50;;;;;;5071272;28;20025;-74
2021/04/28 10:51:36;;;;;;;10.30;8.95;;;15.00;61.60;;;;;;5071499;28;20492;-73
2021/04/28 10:54:25;;;;;;;15.10;9.32;;;15.00;61.10;;;;;;5071625;28;20021;-73
2021/04/28 10:57:00;;;;;;;14.60;10.38;;;15.10;61.30;;;;;;5071040;28;20025;-73
2021/04/28 10:59:42;;;;;;;10.60;8.85;;;15.10;60.00;;;;;;5070972;28;20385;-73
2021/04/28 11:02:10;;;;;;;18.30;12.55;;;15.10;60.90;;;;;;5071731;28;20071;-73
2021/04/28 11:04:36;;;;;;;18.50;9.90;;;15.10;59.80;;;;;;5070354;28;20134;-73
2021/04/28 11:07:02;;;;;;;12.32;9.02;;;15.20;60.30;;;;;;5071516;28;20056;-73
2021/04/28 11:09:28;;;;;;;11.57;8.65;;;15.20;60.30;;;;;;5071275;28;20055;-73
2021/04/28 11:11:56;;;;;;;16.70;10.00;;;15.10;60.80;;;;;;5071009;28;20017;-73
2021/04/28 11:14:24;;;;;;;10.00;9.05;;;15.10;59.50;;;;;;5070929;28;20027;-73
2021/04/28 11:16:50;;;;;;;10.68;9.32;;;15.10;60.60;;;;;;5070818;28;20077;-73
2021/04/28 11:19:22;;;;;;;10.75;9.65;;;15.30;60.50;;;;;;5071710;28;20388;-73
2021/04/28 11:22:21;;;;;;;21.73;11.13;;;15.40;60.10;;;;;;5075380;28;20077;-73
2021/04/28 11:25:07;;;;;;;10.98;9.73;;;15.60;59.30;;;;;;5074632;28;20032;-73
2021/04/28 11:27:47;;;;;;;13.02;9.90;;;15.80;59.10;;;;;;5075096;28;20481;-73
2021/04/28 11:30:19;;;;;;;14.50;9.57;;;16.00;59.20;;;;;;5075424;28;20034;-73
2021/04/28 11:33:14;;;;;;;12.15;10.40;;;16.10;59.10;;;;;;5077497;28;20029;-73
2021/04/28 11:35:43;;;;;;;15.73;9.57;;;16.20;57.60;;;;;;5066177;28;20082;-73
2021/04/28 11:38:18;;;;;;;11.77;10.02;;;16.20;57.00;;;;;;5074390;28;20107;-73
2021/04/28 11:41:03;;;;;;;11.77;9.57;;;16.20;56.00;;;;;;5074221;28;20566;-73
2021/04/28 11:43:34;;;;;;;14.45;11.70;;;16.30;57.00;;;;;;5076847;28;20024;-73
2021/04/28 11:46:10;;;;;;;11.20;10.00;;;16.40;56.10;;;;;;5074992;28;20040;-73
2021/04/28 11:48:37;;;;;;;12.57;10.27;;;16.40;54.90;;;;;;5076651;28;20027;-74
2021/04/28 11:51:17;;;;;;;11.02;9.88;;;16.50;55.70;;;;;;5075148;28;20020;-73
2021/04/28 11:53:51;;;;;;;18.17;9.52;;;16.60;56.00;;;;;;5074199;28;20017;-73
2021/04/28 11:56:29;;;;;;;12.85;10.43;;;16.70;55.00;;;;;;5074700;28;20036;-72
2021/04/28 11:58:56;;;;;;;12.75;9.75;;;16.90;54.30;;;;;;5073821;28;20020;-73
2021/04/28 12:01:26;;;;;;;15.77;11.30;;;17.00;54.10;;;;;;5074627;28;20029;-73
2021/04/28 12:04:00;;;;;;;15.45;10.35;;;17.10;53.60;;;;;;5075015;28;20020;-72
2021/04/28 12:06:46;;;;;;;18.98;11.95;;;17.20;53.60;;;;;;5073913;28;20044;-73
2021/04/28 12:09:11;;;;;;;13.48;10.73;;;17.10;52.90;;;;;;5074483;28;20029;-73
2021/04/28 12:11:41;;;;;;;13.70;10.93;;;17.10;53.20;;;;;;5074455;28;20530;-72
2021/04/28 12:14:07;;;;;;;14.52;10.65;;;17.30;52.80;;;;;;5073657;28;20107;-73
2021/04/28 12:16:59;;;;;;;14.80;10.77;;;17.30;53.30;;;;;;5073345;28;20124;-74
2021/04/28 12:19:26;;;;;;;13.40;10.05;;;17.40;51.50;;;;;;5072327;28;20028;-74
2021/04/28 12:21:54;;;;;;;15.38;9.75;;;17.40;51.80;;;;;;5072629;28;20024;-74
2021/04/28 12:24:25;;;;;;;12.00;10.73;;;17.50;55.40;;;;;;5072861;28;20029;-74
2021/04/28 12:27:08;;;;;;;16.00;10.73;;;17.60;53.80;;;;;;5073122;28;20476;-74
2021/04/28 12:29:36;;;;;;;16.33;10.93;;;17.70;52.30;;;;;;5072411;28;20036;-73
2021/04/28 12:32:03;;;;;;;14.27;9.63;;;17.80;54.20;;;;;;5073362;28;20025;-73
2021/04/28 12:34:29;;;;;;;11.02;9.93;;;17.80;61.10;;;;;;5072384;28;20052;-74
2021/04/28 12:37:07;;;;;;;14.60;10.00;;;17.80;63.20;;;;;;5073956;28;20376;-73
2021/04/28 12:39:32;;;;;;;10.35;9.35;;;17.60;63.90;;;;;;5073846;28;20092;-73
2021/04/28 12:41:59;;;;;;;15.40;9.35;;;17.50;67.10;;;;;;5073026;28;20020;-73
2021/04/28 12:44:26;;;;;;;15.38;10.45;;;17.30;65.80;;;;;;5073567;28;20027;-75
2021/04/28 12:46:54;;;;;;;10.00;9.13;;;17.00;65.90;;;;;;5073648;28;20092;-73
2021/04/28 12:49:22;;;;;;;10.52;9.60;;;17.00;66.60;;;;;;5073090;28;20039;-73
2021/04/28 12:51:51;;;;;;;13.88;10.25;;;16.90;65.00;;;;;;5073730;28;20028;-74